sensor_id;sensor_type;location;lat;lon;timestamp;temperature;humidity
3418;DHT22;68007;51.312;12.372;2024-02-26T00:00:03;10.40;73.40
3418;DHT22;68007;51.312;12.372;2024-02-26T00:02:35;10.30;73.40
3418;DHT22;68007;51.312;12.372;2024-02-26T00:05:06;10.30;73.50
3418;DHT22;68007;51.312;12.372;2024-02-26T00:07:34;10.30;73.60
3418;DHT22;68007;51.312;12.372;2024-02-26T00:10:02;10.30;73.60
3418;DHT22;68007;51.312;12.372;2024-02-26T00:12:30;10.30;73.70
3418;DHT22;68007;51.312;12.372;2024-02-26T00:14:58;10.30;73.70
3418;DHT22;68007;51.312;12.372;2024-02-26T00:17:25;10.30;73.80
3418;DHT22;68007;51.312;12.372;2024-02-26T00:19:53;10.30;73.90
3418;DHT22;68007;51.312;12.372;2024-02-26T00:22:21;10.20;73.80
3418;DHT22;68007;51.312;12.372;2024-02-26T00:24:49;10.20;73.90
3418;DHT22;68007;51.312;12.372;2024-02-26T00:27:16;10.20;74.00
3418;DHT22;68007;51.312;12.372;2024-02-26T00:29:44;10.20;74.10
3418;DHT22;68007;51.312;12.372;2024-02-26T00:32:11;10.20;74.20
3418;DHT22;68007;51.312;12.372;2024-02-26T00:34:39;10.20;74.20
3418;DHT22;68007;51.312;12.372;2024-02-26T00:37:06;10.10;74.20
3418;DHT22;68007;51.312;12.372;2024-02-26T00:39:35;10.10;74.90
3418;DHT22;68007;51.312;12.372;2024-02-26T00:42:03;10.10;74.40
3418;DHT22;68007;51.312;12.372;2024-02-26T00:44:31;10.10;74.40
3418;DHT22;68007;51.312;12.372;2024-02-26T00:46:58;10.10;74.50
3418;DHT22;68007;51.312;12.372;2024-02-26T00:49:26;10.10;74.50
3418;DHT22;68007;51.312;12.372;2024-02-26T00:51:53;10.10;74.60
3418;DHT22;68007;51.312;12.372;2024-02-26T00:54:21;10.10;74.60
3418;DHT22;68007;51.312;12.372;2024-02-26T00:56:49;10.10;74.60
3418;DHT22;68007;51.312;12.372;2024-02-26T00:59:17;10.10;74.60
3418;DHT22;68007;51.312;12.372;2024-02-26T01:01:44;10.00;74.50
3418;DHT22;68007;51.312;12.372;2024-02-26T01:04:12;10.00;74.50
3418;DHT22;68007;51.312;12.372;2024-02-26T01:06:39;10.00;74.60
3418;DHT22;68007;51.312;12.372;2024-02-26T01:09:07;10.00;74.70
3418;DHT22;68007;51.312;12.372;2024-02-26T01:11:35;10.00;74.70
3418;DHT22;68007;51.312;12.372;2024-02-26T01:14:04;10.00;74.70
3418;DHT22;68007;51.312;12.372;2024-02-26T01:16:32;10.00;74.60
3418;DHT22;68007;51.312;12.372;2024-02-26T01:18:59;9.90;74.70
3418;DHT22;68007;51.312;12.372;2024-02-26T01:21:27;9.90;74.70
3418;DHT22;68007;51.312;12.372;2024-02-26T01:23:56;10.00;74.80
3418;DHT22;68007;51.312;12.372;2024-02-26T01:26:23;9.90;74.80
3418;DHT22;68007;51.312;12.372;2024-02-26T01:28:51;9.90;74.70
3418;DHT22;68007;51.312;12.372;2024-02-26T01:31:20;9.90;74.70
3418;DHT22;68007;51.312;12.372;2024-02-26T01:33:47;9.90;74.80
3418;DHT22;68007;51.312;12.372;2024-02-26T01:36:15;9.90;74.80
3418;DHT22;68007;51.312;12.372;2024-02-26T01:38:42;9.90;74.90
3418;DHT22;68007;51.312;12.372;2024-02-26T01:41:10;9.90;74.90
3418;DHT22;68007;51.312;12.372;2024-02-26T01:43:37;9.80;74.80
3418;DHT22;68007;51.312;12.372;2024-02-26T01:46:05;9.80;74.90
3418;DHT22;68007;51.312;12.372;2024-02-26T01:48:34;9.80;74.90
3418;DHT22;68007;51.312;12.372;2024-02-26T01:51:02;9.80;75.00
3418;DHT22;68007;51.312;12.372;2024-02-26T01:53:30;9.80;75.00
3418;DHT22;68007;51.312;12.372;2024-02-26T01:55:58;9.80;75.00
3418;DHT22;68007;51.312;12.372;2024-02-26T01:58:26;9.80;75.00
3418;DHT22;68007;51.312;12.372;2024-02-26T02:00:53;9.80;75.10
3418;DHT22;68007;51.312;12.372;2024-02-26T02:03:21;9.80;75.10
3418;DHT22;68007;51.312;12.372;2024-02-26T02:05:50;9.70;75.10
3418;DHT22;68007;51.312;12.372;2024-02-26T02:08:18;9.80;75.10
3418;DHT22;68007;51.312;12.372;2024-02-26T02:10:46;9.80;75.10
3418;DHT22;68007;51.312;12.372;2024-02-26T02:13:15;9.70;75.20
3418;DHT22;68007;51.312;12.372;2024-02-26T02:15:43;9.70;75.20
3418;DHT22;68007;51.312;12.372;2024-02-26T02:18:10;9.70;75.30
3418;DHT22;68007;51.312;12.372;2024-02-26T02:20:39;9.60;75.30
3418;DHT22;68007;51.312;12.372;2024-02-26T02:23:06;9.60;75.90
3418;DHT22;68007;51.312;12.372;2024-02-26T02:25:34;9.60;75.40
3418;DHT22;68007;51.312;12.372;2024-02-26T02:28:01;9.60;75.40
3418;DHT22;68007;51.312;12.372;2024-02-26T02:30:30;9.60;75.40
3418;DHT22;68007;51.312;12.372;2024-02-26T02:32:59;9.60;75.50
3418;DHT22;68007;51.312;12.372;2024-02-26T02:35:26;9.60;75.50
3418;DHT22;68007;51.312;12.372;2024-02-26T02:37:56;9.60;75.60
3418;DHT22;68007;51.312;12.372;2024-02-26T02:40:24;9.60;75.60
3418;DHT22;68007;51.312;12.372;2024-02-26T02:42:53;9.50;75.60
3418;DHT22;68007;51.312;12.372;2024-02-26T02:45:20;9.50;75.60
3418;DHT22;68007;51.312;12.372;2024-02-26T02:47:48;9.50;75.70
3418;DHT22;68007;51.312;12.372;2024-02-26T02:50:15;9.50;75.70
3418;DHT22;68007;51.312;12.372;2024-02-26T02:52:43;9.40;75.70
3418;DHT22;68007;51.312;12.372;2024-02-26T02:55:12;9.50;75.90
3418;DHT22;68007;51.312;12.372;2024-02-26T02:57:39;9.40;75.80
3418;DHT22;68007;51.312;12.372;2024-02-26T03:00:09;9.40;75.90
3418;DHT22;68007;51.312;12.372;2024-02-26T03:02:37;9.40;75.90
3418;DHT22;68007;51.312;12.372;2024-02-26T03:05:05;9.40;75.90
3418;DHT22;68007;51.312;12.372;2024-02-26T03:07:33;9.30;75.90
3418;DHT22;68007;51.312;12.372;2024-02-26T03:10:00;9.40;76.10
3418;DHT22;68007;51.312;12.372;2024-02-26T03:12:30;9.40;76.10
3418;DHT22;68007;51.312;12.372;2024-02-26T03:14:58;9.40;76.10
3418;DHT22;68007;51.312;12.372;2024-02-26T03:17:27;9.30;76.00
3418;DHT22;68007;51.312;12.372;2024-02-26T03:19:55;9.30;76.10
3418;DHT22;68007;51.312;12.372;2024-02-26T03:22:22;9.30;76.10
3418;DHT22;68007;51.312;12.372;2024-02-26T03:24:50;9.30;76.10
3418;DHT22;68007;51.312;12.372;2024-02-26T03:27:17;9.30;76.10
3418;DHT22;68007;51.312;12.372;2024-02-26T03:29:46;9.30;76.20
3418;DHT22;68007;51.312;12.372;2024-02-26T03:32:14;9.30;76.20
3418;DHT22;68007;51.312;12.372;2024-02-26T03:34:41;9.20;76.30
3418;DHT22;68007;51.312;12.372;2024-02-26T03:37:09;9.20;76.30
3418;DHT22;68007;51.312;12.372;2024-02-26T03:39:37;9.20;76.30
3418;DHT22;68007;51.312;12.372;2024-02-26T03:42:05;9.20;76.40
3418;DHT22;68007;51.312;12.372;2024-02-26T03:44:33;9.20;76.40
3418;DHT22;68007;51.312;12.372;2024-02-26T03:47:01;9.10;76.40
3418;DHT22;68007;51.312;12.372;2024-02-26T03:49:29;9.10;76.40
3418;DHT22;68007;51.312;12.372;2024-02-26T03:51:56;9.10;76.50
3418;DHT22;68007;51.312;12.372;2024-02-26T03:54:24;9.10;76.60
3418;DHT22;68007;51.312;12.372;2024-02-26T03:56:51;9.10;76.60
3418;DHT22;68007;51.312;12.372;2024-02-26T03:59:19;9.10;76.60
3418;DHT22;68007;51.312;12.372;2024-02-26T04:01:48;9.00;76.60
3418;DHT22;68007;51.312;12.372;2024-02-26T04:04:17;9.00;76.60
3418;DHT22;68007;51.312;12.372;2024-02-26T04:06:45;9.00;76.60
3418;DHT22;68007;51.312;12.372;2024-02-26T04:09:14;9.00;76.60
3418;DHT22;68007;51.312;12.372;2024-02-26T04:11:41;9.00;76.60
3418;DHT22;68007;51.312;12.372;2024-02-26T04:14:10;9.00;76.70
3418;DHT22;68007;51.312;12.372;2024-02-26T04:16:38;8.90;76.70
3418;DHT22;68007;51.312;12.372;2024-02-26T04:19:06;8.90;76.70
3418;DHT22;68007;51.312;12.372;2024-02-26T04:21:35;8.90;77.40
3418;DHT22;68007;51.312;12.372;2024-02-26T04:24:03;8.80;76.80
3418;DHT22;68007;51.312;12.372;2024-02-26T04:26:30;8.80;76.80
3418;DHT22;68007;51.312;12.372;2024-02-26T04:28:58;8.80;76.80
3418;DHT22;68007;51.312;12.372;2024-02-26T04:31:25;8.80;76.90
3418;DHT22;68007;51.312;12.372;2024-02-26T04:33:53;8.80;77.00
3418;DHT22;68007;51.312;12.372;2024-02-26T04:36:21;8.80;77.00
3418;DHT22;68007;51.312;12.372;2024-02-26T04:38:50;8.80;77.10
3418;DHT22;68007;51.312;12.372;2024-02-26T04:41:20;8.80;77.30
3418;DHT22;68007;51.312;12.372;2024-02-26T04:43:48;8.80;77.30
3418;DHT22;68007;51.312;12.372;2024-02-26T04:46:15;8.80;77.40
3418;DHT22;68007;51.312;12.372;2024-02-26T04:48:43;8.70;77.40
3418;DHT22;68007;51.312;12.372;2024-02-26T04:51:13;8.70;77.50
3418;DHT22;68007;51.312;12.372;2024-02-26T04:53:40;8.70;77.60
3418;DHT22;68007;51.312;12.372;2024-02-26T04:56:09;8.70;77.60
3418;DHT22;68007;51.312;12.372;2024-02-26T04:58:36;8.70;77.70
3418;DHT22;68007;51.312;12.372;2024-02-26T05:01:04;8.70;77.80
3418;DHT22;68007;51.312;12.372;2024-02-26T05:03:32;8.70;77.90
3418;DHT22;68007;51.312;12.372;2024-02-26T05:06:00;8.70;78.10
3418;DHT22;68007;51.312;12.372;2024-02-26T05:08:28;8.70;78.20
3418;DHT22;68007;51.312;12.372;2024-02-26T05:10:57;8.70;77.70
3418;DHT22;68007;51.312;12.372;2024-02-26T05:13:25;8.70;78.30
3418;DHT22;68007;51.312;12.372;2024-02-26T05:15:53;8.60;78.40
3418;DHT22;68007;51.312;12.372;2024-02-26T05:18:22;8.60;78.50
3418;DHT22;68007;51.312;12.372;2024-02-26T05:20:49;8.60;78.50
3418;DHT22;68007;51.312;12.372;2024-02-26T05:23:17;8.60;78.60
3418;DHT22;68007;51.312;12.372;2024-02-26T05:25:44;8.60;79.30
3418;DHT22;68007;51.312;12.372;2024-02-26T05:28:13;8.60;78.70
3418;DHT22;68007;51.312;12.372;2024-02-26T05:30:43;8.60;78.80
3418;DHT22;68007;51.312;12.372;2024-02-26T05:33:10;8.60;78.80
3418;DHT22;68007;51.312;12.372;2024-02-26T05:35:38;8.60;78.90
3418;DHT22;68007;51.312;12.372;2024-02-26T05:38:06;8.60;78.90
3418;DHT22;68007;51.312;12.372;2024-02-26T05:40:34;8.60;79.00
3418;DHT22;68007;51.312;12.372;2024-02-26T05:43:01;8.60;79.10
3418;DHT22;68007;51.312;12.372;2024-02-26T05:45:29;8.50;79.00
3418;DHT22;68007;51.312;12.372;2024-02-26T05:47:57;8.60;79.10
3418;DHT22;68007;51.312;12.372;2024-02-26T05:50:25;8.50;79.70
3418;DHT22;68007;51.312;12.372;2024-02-26T05:52:52;8.50;79.20
3418;DHT22;68007;51.312;12.372;2024-02-26T05:55:20;8.50;79.20
3418;DHT22;68007;51.312;12.372;2024-02-26T05:57:47;8.50;79.20
3418;DHT22;68007;51.312;12.372;2024-02-26T06:00:16;8.50;79.90
3418;DHT22;68007;51.312;12.372;2024-02-26T06:02:43;8.50;79.40
3418;DHT22;68007;51.312;12.372;2024-02-26T06:05:12;8.50;79.50
3418;DHT22;68007;51.312;12.372;2024-02-26T06:07:40;8.50;79.50
3418;DHT22;68007;51.312;12.372;2024-02-26T06:10:08;8.50;79.50
3418;DHT22;68007;51.312;12.372;2024-02-26T06:12:35;8.50;79.50
3418;DHT22;68007;51.312;12.372;2024-02-26T06:15:04;8.50;79.70
3418;DHT22;68007;51.312;12.372;2024-02-26T06:17:31;8.50;79.60
3418;DHT22;68007;51.312;12.372;2024-02-26T06:19:59;8.50;79.70
3418;DHT22;68007;51.312;12.372;2024-02-26T06:22:30;8.50;79.70
3418;DHT22;68007;51.312;12.372;2024-02-26T06:24:57;8.50;79.70
3418;DHT22;68007;51.312;12.372;2024-02-26T06:27:25;8.50;79.80
3418;DHT22;68007;51.312;12.372;2024-02-26T06:29:52;8.50;79.80
3418;DHT22;68007;51.312;12.372;2024-02-26T06:32:20;8.50;79.80
3418;DHT22;68007;51.312;12.372;2024-02-26T06:34:49;8.50;79.90
3418;DHT22;68007;51.312;12.372;2024-02-26T06:37:16;8.50;79.80
3418;DHT22;68007;51.312;12.372;2024-02-26T06:39:45;8.50;80.10
3418;DHT22;68007;51.312;12.372;2024-02-26T06:42:13;8.50;80.10
3418;DHT22;68007;51.312;12.372;2024-02-26T06:44:40;8.50;80.10
3418;DHT22;68007;51.312;12.372;2024-02-26T06:47:08;8.50;80.10
3418;DHT22;68007;51.312;12.372;2024-02-26T06:49:35;8.50;80.10
3418;DHT22;68007;51.312;12.372;2024-02-26T06:52:03;8.50;80.20
3418;DHT22;68007;51.312;12.372;2024-02-26T06:54:30;8.50;80.20
3418;DHT22;68007;51.312;12.372;2024-02-26T06:57:00;8.50;80.20
3418;DHT22;68007;51.312;12.372;2024-02-26T06:59:27;8.50;80.30
3418;DHT22;68007;51.312;12.372;2024-02-26T07:01:55;8.50;80.40
3418;DHT22;68007;51.312;12.372;2024-02-26T07:04:22;8.50;80.40
3418;DHT22;68007;51.312;12.372;2024-02-26T07:06:50;8.50;80.40
3418;DHT22;68007;51.312;12.372;2024-02-26T07:09:17;8.50;80.50
3418;DHT22;68007;51.312;12.372;2024-02-26T07:11:45;8.50;80.60
3418;DHT22;68007;51.312;12.372;2024-02-26T07:14:14;8.50;80.70
3418;DHT22;68007;51.312;12.372;2024-02-26T07:16:41;8.50;80.80
3418;DHT22;68007;51.312;12.372;2024-02-26T07:19:09;8.50;80.90
3418;DHT22;68007;51.312;12.372;2024-02-26T07:21:36;8.50;80.80
3418;DHT22;68007;51.312;12.372;2024-02-26T07:24:04;8.50;80.90
3418;DHT22;68007;51.312;12.372;2024-02-26T07:26:32;8.50;81.00
3418;DHT22;68007;51.312;12.372;2024-02-26T07:28:59;8.50;81.00
3418;DHT22;68007;51.312;12.372;2024-02-26T07:31:29;8.50;81.10
3418;DHT22;68007;51.312;12.372;2024-02-26T07:33:57;8.50;81.00
3418;DHT22;68007;51.312;12.372;2024-02-26T07:36:25;8.50;81.20
3418;DHT22;68007;51.312;12.372;2024-02-26T07:38:52;8.60;81.20
3418;DHT22;68007;51.312;12.372;2024-02-26T07:41:20;8.60;81.40
3418;DHT22;68007;51.312;12.372;2024-02-26T07:43:48;8.60;81.40
3418;DHT22;68007;51.312;12.372;2024-02-26T07:46:15;8.60;81.30
3418;DHT22;68007;51.312;12.372;2024-02-26T07:48:44;8.50;81.30
3418;DHT22;68007;51.312;12.372;2024-02-26T07:51:12;8.60;81.50
3418;DHT22;68007;51.312;12.372;2024-02-26T07:53:40;8.60;81.30
3418;DHT22;68007;51.312;12.372;2024-02-26T07:56:08;8.60;81.30
3418;DHT22;68007;51.312;12.372;2024-02-26T07:58:36;8.60;81.50
3418;DHT22;68007;51.312;12.372;2024-02-26T08:01:03;8.60;81.60
3418;DHT22;68007;51.312;12.372;2024-02-26T08:03:31;8.60;81.50
3418;DHT22;68007;51.312;12.372;2024-02-26T08:06:01;8.70;81.60
3418;DHT22;68007;51.312;12.372;2024-02-26T08:08:28;8.70;81.40
3418;DHT22;68007;51.312;12.372;2024-02-26T08:10:56;8.70;81.60
3418;DHT22;68007;51.312;12.372;2024-02-26T08:13:23;8.70;81.50
3418;DHT22;68007;51.312;12.372;2024-02-26T08:15:51;8.70;81.50
3418;DHT22;68007;51.312;12.372;2024-02-26T08:18:18;8.70;81.50
3418;DHT22;68007;51.312;12.372;2024-02-26T08:20:46;8.70;81.50
3418;DHT22;68007;51.312;12.372;2024-02-26T08:23:17;8.80;81.70
3418;DHT22;68007;51.312;12.372;2024-02-26T08:25:44;8.80;81.50
3418;DHT22;68007;51.312;12.372;2024-02-26T08:28:12;8.80;81.60
3418;DHT22;68007;51.312;12.372;2024-02-26T08:30:40;8.80;81.60
3418;DHT22;68007;51.312;12.372;2024-02-26T08:33:07;8.80;81.60
3418;DHT22;68007;51.312;12.372;2024-02-26T08:35:36;8.80;81.60
3418;DHT22;68007;51.312;12.372;2024-02-26T08:38:03;8.80;81.60
3418;DHT22;68007;51.312;12.372;2024-02-26T08:40:32;8.90;81.70
3418;DHT22;68007;51.312;12.372;2024-02-26T08:43:00;8.90;81.60
3418;DHT22;68007;51.312;12.372;2024-02-26T08:45:27;8.90;81.60
3418;DHT22;68007;51.312;12.372;2024-02-26T08:47:55;8.90;82.10
3418;DHT22;68007;51.312;12.372;2024-02-26T08:50:22;8.90;81.50
3418;DHT22;68007;51.312;12.372;2024-02-26T08:52:50;8.90;81.40
3418;DHT22;68007;51.312;12.372;2024-02-26T08:55:19;9.00;81.40
3418;DHT22;68007;51.312;12.372;2024-02-26T08:57:48;8.90;81.20
3418;DHT22;68007;51.312;12.372;2024-02-26T09:00:17;9.00;81.20
3418;DHT22;68007;51.312;12.372;2024-02-26T09:02:47;9.00;81.10
3418;DHT22;68007;51.312;12.372;2024-02-26T09:05:15;9.00;81.00
3418;DHT22;68007;51.312;12.372;2024-02-26T09:07:43;9.00;80.90
3418;DHT22;68007;51.312;12.372;2024-02-26T09:10:11;9.10;80.90
3418;DHT22;68007;51.312;12.372;2024-02-26T09:12:39;9.10;80.80
3418;DHT22;68007;51.312;12.372;2024-02-26T09:15:08;9.10;80.70
3418;DHT22;68007;51.312;12.372;2024-02-26T09:17:36;9.20;80.60
3418;DHT22;68007;51.312;12.372;2024-02-26T09:20:04;9.20;81.20
3418;DHT22;68007;51.312;12.372;2024-02-26T09:22:35;9.20;80.70
3418;DHT22;68007;51.312;12.372;2024-02-26T09:25:04;9.20;80.60
3418;DHT22;68007;51.312;12.372;2024-02-26T09:27:32;9.30;80.70
3418;DHT22;68007;51.312;12.372;2024-02-26T09:30:00;9.30;80.70
3418;DHT22;68007;51.312;12.372;2024-02-26T09:32:29;9.30;80.80
3418;DHT22;68007;51.312;12.372;2024-02-26T09:34:56;9.40;80.80
3418;DHT22;68007;51.312;12.372;2024-02-26T09:37:24;9.40;80.90
3418;DHT22;68007;51.312;12.372;2024-02-26T09:39:51;9.50;80.90
3418;DHT22;68007;51.312;12.372;2024-02-26T09:42:19;9.50;80.90
3418;DHT22;68007;51.312;12.372;2024-02-26T09:44:49;9.50;81.00
3418;DHT22;68007;51.312;12.372;2024-02-26T09:47:18;9.60;81.20
3418;DHT22;68007;51.312;12.372;2024-02-26T09:49:49;9.60;81.40
3418;DHT22;68007;51.312;12.372;2024-02-26T09:52:17;9.60;81.40
3418;DHT22;68007;51.312;12.372;2024-02-26T09:54:47;9.70;81.90
3418;DHT22;68007;51.312;12.372;2024-02-26T09:57:16;9.70;81.90
3418;DHT22;68007;51.312;12.372;2024-02-26T09:59:44;9.70;81.80
3418;DHT22;68007;51.312;12.372;2024-02-26T10:02:15;9.80;81.90
3418;DHT22;68007;51.312;12.372;2024-02-26T10:04:43;9.80;81.90
3418;DHT22;68007;51.312;12.372;2024-02-26T10:07:13;9.80;81.90
3418;DHT22;68007;51.312;12.372;2024-02-26T10:09:41;9.90;82.20
3418;DHT22;68007;51.312;12.372;2024-02-26T10:12:10;9.90;82.30
3418;DHT22;68007;51.312;12.372;2024-02-26T10:14:38;9.90;82.70
3418;DHT22;68007;51.312;12.372;2024-02-26T10:17:07;10.00;83.40
3418;DHT22;68007;51.312;12.372;2024-02-26T10:19:35;10.00;83.30
3418;DHT22;68007;51.312;12.372;2024-02-26T10:22:03;10.00;83.30
3418;DHT22;68007;51.312;12.372;2024-02-26T10:24:32;10.00;83.50
3418;DHT22;68007;51.312;12.372;2024-02-26T10:27:02;10.10;83.70
3418;DHT22;68007;51.312;12.372;2024-02-26T10:29:30;10.10;83.60
3418;DHT22;68007;51.312;12.372;2024-02-26T10:31:58;10.20;83.90
3418;DHT22;68007;51.312;12.372;2024-02-26T10:34:26;10.20;84.50
3418;DHT22;68007;51.312;12.372;2024-02-26T10:36:55;10.20;83.70
3418;DHT22;68007;51.312;12.372;2024-02-26T10:39:22;10.30;83.80
3418;DHT22;68007;51.312;12.372;2024-02-26T10:41:51;10.30;83.70
3418;DHT22;68007;51.312;12.372;2024-02-26T10:44:19;10.40;83.70
3418;DHT22;68007;51.312;12.372;2024-02-26T10:46:47;10.30;83.60
3418;DHT22;68007;51.312;12.372;2024-02-26T10:49:16;10.40;83.60
3418;DHT22;68007;51.312;12.372;2024-02-26T10:51:52;10.40;83.60
3418;DHT22;68007;51.312;12.372;2024-02-26T10:54:20;10.50;83.60
3418;DHT22;68007;51.312;12.372;2024-02-26T10:56:51;10.50;83.70
3418;DHT22;68007;51.312;12.372;2024-02-26T10:59:20;10.50;83.50
3418;DHT22;68007;51.312;12.372;2024-02-26T11:01:48;10.50;83.60
3418;DHT22;68007;51.312;12.372;2024-02-26T11:04:16;10.60;83.60
3418;DHT22;68007;51.312;12.372;2024-02-26T11:06:44;10.60;83.70
3418;DHT22;68007;51.312;12.372;2024-02-26T11:09:13;10.70;83.80
3418;DHT22;68007;51.312;12.372;2024-02-26T11:11:42;10.70;83.70
3418;DHT22;68007;51.312;12.372;2024-02-26T11:14:11;10.70;84.20
3418;DHT22;68007;51.312;12.372;2024-02-26T11:16:40;10.70;83.60
3418;DHT22;68007;51.312;12.372;2024-02-26T11:19:09;10.80;83.70
3418;DHT22;68007;51.312;12.372;2024-02-26T11:21:38;10.80;83.60
3418;DHT22;68007;51.312;12.372;2024-02-26T11:24:11;10.80;83.60
3418;DHT22;68007;51.312;12.372;2024-02-26T11:26:41;10.90;83.60
3418;DHT22;68007;51.312;12.372;2024-02-26T11:29:15;10.90;83.70
3418;DHT22;68007;51.312;12.372;2024-02-26T11:31:43;10.90;83.70
3418;DHT22;68007;51.312;12.372;2024-02-26T11:34:11;10.90;83.70
3418;DHT22;68007;51.312;12.372;2024-02-26T11:36:38;11.00;83.90
3418;DHT22;68007;51.312;12.372;2024-02-26T11:39:06;11.00;83.90
3418;DHT22;68007;51.312;12.372;2024-02-26T11:41:34;11.00;83.90
3418;DHT22;68007;51.312;12.372;2024-02-26T11:44:03;11.10;84.00
3418;DHT22;68007;51.312;12.372;2024-02-26T11:46:39;11.10;83.90
3418;DHT22;68007;51.312;12.372;2024-02-26T11:49:31;11.10;83.80
3418;DHT22;68007;51.312;12.372;2024-02-26T11:51:59;11.20;83.80
3418;DHT22;68007;51.312;12.372;2024-02-26T11:54:54;11.20;84.00
3418;DHT22;68007;51.312;12.372;2024-02-26T11:57:27;11.20;84.00
3418;DHT22;68007;51.312;12.372;2024-02-26T11:59:55;11.20;84.00
3418;DHT22;68007;51.312;12.372;2024-02-26T12:02:40;11.20;84.00
3418;DHT22;68007;51.312;12.372;2024-02-26T12:05:11;11.30;83.90
3418;DHT22;68007;51.312;12.372;2024-02-26T12:07:40;11.30;84.00
3418;DHT22;68007;51.312;12.372;2024-02-26T12:10:20;11.40;84.10
3418;DHT22;68007;51.312;12.372;2024-02-26T12:12:49;11.40;84.20
3418;DHT22;68007;51.312;12.372;2024-02-26T12:15:17;11.40;84.30
3418;DHT22;68007;51.312;12.372;2024-02-26T12:17:50;11.40;84.40
3418;DHT22;68007;51.312;12.372;2024-02-26T12:20:18;11.50;84.40
3418;DHT22;68007;51.312;12.372;2024-02-26T12:22:47;11.40;84.40
3418;DHT22;68007;51.312;12.372;2024-02-26T12:25:16;11.50;84.50
3418;DHT22;68007;51.312;12.372;2024-02-26T12:27:43;11.50;84.50
3418;DHT22;68007;51.312;12.372;2024-02-26T12:30:12;11.50;84.40
3418;DHT22;68007;51.312;12.372;2024-02-26T12:32:40;11.50;84.50
3418;DHT22;68007;51.312;12.372;2024-02-26T12:35:09;11.60;84.60
3418;DHT22;68007;51.312;12.372;2024-02-26T12:37:36;11.60;84.80
3418;DHT22;68007;51.312;12.372;2024-02-26T12:40:06;11.60;85.40
3418;DHT22;68007;51.312;12.372;2024-02-26T12:42:34;11.60;84.80
3418;DHT22;68007;51.312;12.372;2024-02-26T12:45:07;11.60;85.00
3418;DHT22;68007;51.312;12.372;2024-02-26T12:47:36;11.70;84.90
3418;DHT22;68007;51.312;12.372;2024-02-26T12:50:05;11.70;85.00
3418;DHT22;68007;51.312;12.372;2024-02-26T12:52:36;11.70;85.30
3418;DHT22;68007;51.312;12.372;2024-02-26T12:55:06;11.80;85.50
3418;DHT22;68007;51.312;12.372;2024-02-26T12:57:36;11.80;85.50
3418;DHT22;68007;51.312;12.372;2024-02-26T13:00:06;11.80;85.60
3418;DHT22;68007;51.312;12.372;2024-02-26T13:02:36;11.80;85.70
3418;DHT22;68007;51.312;12.372;2024-02-26T13:05:06;11.90;85.90
3418;DHT22;68007;51.312;12.372;2024-02-26T13:07:40;11.90;86.10
3418;DHT22;68007;51.312;12.372;2024-02-26T13:10:09;11.90;85.90
3418;DHT22;68007;51.312;12.372;2024-02-26T13:12:41;11.90;86.80
3418;DHT22;68007;51.312;12.372;2024-02-26T13:15:14;11.90;86.40
3418;DHT22;68007;51.312;12.372;2024-02-26T13:17:41;12.00;86.60
3418;DHT22;68007;51.312;12.372;2024-02-26T13:20:09;12.00;86.50
3418;DHT22;68007;51.312;12.372;2024-02-26T13:22:39;12.00;86.50
3418;DHT22;68007;51.312;12.372;2024-02-26T13:25:07;12.00;86.60
3418;DHT22;68007;51.312;12.372;2024-02-26T13:27:35;12.00;86.60
3418;DHT22;68007;51.312;12.372;2024-02-26T13:30:09;12.10;86.60
3418;DHT22;68007;51.312;12.372;2024-02-26T13:32:38;12.10;86.30
3418;DHT22;68007;51.312;12.372;2024-02-26T13:35:07;12.10;86.40
3418;DHT22;68007;51.312;12.372;2024-02-26T13:37:36;12.20;86.30
3418;DHT22;68007;51.312;12.372;2024-02-26T13:40:09;12.20;86.30
3418;DHT22;68007;51.312;12.372;2024-02-26T13:42:38;12.20;86.20
3418;DHT22;68007;51.312;12.372;2024-02-26T13:45:06;12.30;86.50
3418;DHT22;68007;51.312;12.372;2024-02-26T13:47:34;12.30;86.40
3418;DHT22;68007;51.312;12.372;2024-02-26T13:50:02;12.30;86.60
3418;DHT22;68007;51.312;12.372;2024-02-26T13:52:29;12.30;86.60
3418;DHT22;68007;51.312;12.372;2024-02-26T13:54:59;12.30;86.60
3418;DHT22;68007;51.312;12.372;2024-02-26T13:57:28;12.40;86.50
3418;DHT22;68007;51.312;12.372;2024-02-26T13:59:55;12.40;86.60
3418;DHT22;68007;51.312;12.372;2024-02-26T14:02:23;12.40;86.70
3418;DHT22;68007;51.312;12.372;2024-02-26T14:04:50;12.40;86.70
3418;DHT22;68007;51.312;12.372;2024-02-26T14:07:18;12.50;86.50
3418;DHT22;68007;51.312;12.372;2024-02-26T14:09:45;12.50;86.40
3418;DHT22;68007;51.312;12.372;2024-02-26T14:12:13;12.50;86.50
3418;DHT22;68007;51.312;12.372;2024-02-26T14:14:42;12.50;86.50
3418;DHT22;68007;51.312;12.372;2024-02-26T14:17:11;12.60;86.40
3418;DHT22;68007;51.312;12.372;2024-02-26T14:19:40;12.60;86.30
3418;DHT22;68007;51.312;12.372;2024-02-26T14:22:11;12.60;86.30
3418;DHT22;68007;51.312;12.372;2024-02-26T14:24:38;12.60;86.20
3418;DHT22;68007;51.312;12.372;2024-02-26T14:27:08;12.70;86.70
3418;DHT22;68007;51.312;12.372;2024-02-26T14:29:36;12.70;86.40
3418;DHT22;68007;51.312;12.372;2024-02-26T14:32:07;12.80;86.30
3418;DHT22;68007;51.312;12.372;2024-02-26T14:34:35;12.90;86.20
3418;DHT22;68007;51.312;12.372;2024-02-26T14:37:02;12.90;86.00
3418;DHT22;68007;51.312;12.372;2024-02-26T14:39:31;12.90;85.90
3418;DHT22;68007;51.312;12.372;2024-02-26T14:41:59;12.90;85.50
3418;DHT22;68007;51.312;12.372;2024-02-26T14:44:26;12.90;85.20
3418;DHT22;68007;51.312;12.372;2024-02-26T14:46:54;12.90;85.00
3418;DHT22;68007;51.312;12.372;2024-02-26T14:49:22;13.00;85.10
3418;DHT22;68007;51.312;12.372;2024-02-26T14:51:50;13.00;84.60
3418;DHT22;68007;51.312;12.372;2024-02-26T14:54:18;13.00;84.50
3418;DHT22;68007;51.312;12.372;2024-02-26T14:56:46;13.00;84.20
3418;DHT22;68007;51.312;12.372;2024-02-26T14:59:14;13.00;84.10
3418;DHT22;68007;51.312;12.372;2024-02-26T15:01:41;13.00;84.00
3418;DHT22;68007;51.312;12.372;2024-02-26T15:04:09;13.00;83.90
3418;DHT22;68007;51.312;12.372;2024-02-26T15:06:39;13.10;84.00
3418;DHT22;68007;51.312;12.372;2024-02-26T15:09:07;13.10;83.70
3418;DHT22;68007;51.312;12.372;2024-02-26T15:11:38;13.10;84.20
3418;DHT22;68007;51.312;12.372;2024-02-26T15:14:07;13.10;83.60
3418;DHT22;68007;51.312;12.372;2024-02-26T15:16:34;13.10;83.80
3418;DHT22;68007;51.312;12.372;2024-02-26T15:19:02;13.10;83.50
3418;DHT22;68007;51.312;12.372;2024-02-26T15:21:30;13.10;83.30
3418;DHT22;68007;51.312;12.372;2024-02-26T15:23:59;13.10;84.00
3418;DHT22;68007;51.312;12.372;2024-02-26T15:26:26;13.10;83.30
3418;DHT22;68007;51.312;12.372;2024-02-26T15:28:54;13.10;83.30
3418;DHT22;68007;51.312;12.372;2024-02-26T15:31:21;13.20;83.30
3418;DHT22;68007;51.312;12.372;2024-02-26T15:33:49;13.10;83.10
3418;DHT22;68007;51.312;12.372;2024-02-26T15:36:16;13.20;83.10
3418;DHT22;68007;51.312;12.372;2024-02-26T15:38:44;13.20;83.20
3418;DHT22;68007;51.312;12.372;2024-02-26T15:41:13;13.20;83.10
3418;DHT22;68007;51.312;12.372;2024-02-26T15:43:41;13.20;83.20
3418;DHT22;68007;51.312;12.372;2024-02-26T15:46:09;13.20;83.20